sensor_id;sensor_type;location;lat;lon;timestamp;P1;durP1;ratioP1;P2;durP2;ratioP2
43771;SDS011;59066;54.782;32.024;2023-05-07T00:01:08;10.18;;;5.53;;
43771;SDS011;59066;54.782;32.024;2023-05-07T00:03:35;8.73;;;5.18;;
43771;SDS011;59066;54.782;32.024;2023-05-07T00:06:03;8.27;;;4.90;;
43771;SDS011;59066;54.782;32.024;2023-05-07T00:08:31;11.95;;;5.50;;
43771;SDS011;59066;54.782;32.024;2023-05-07T00:10:58;9.07;;;5.10;;
43771;SDS011;59066;54.782;32.024;2023-05-07T00:13:26;7.85;;;4.45;;
43771;SDS011;59066;54.782;32.024;2023-05-07T00:15:54;7.97;;;5.32;;
43771;SDS011;59066;54.782;32.024;2023-05-07T00:18:21;10.80;;;5.95;;
43771;SDS011;59066;54.782;32.024;2023-05-07T00:20:49;8.68;;;5.43;;
43771;SDS011;59066;54.782;32.024;2023-05-07T00:23:17;10.85;;;4.80;;
43771;SDS011;59066;54.782;32.024;2023-05-07T00:25:44;9.93;;;5.50;;
43771;SDS011;59066;54.782;32.024;2023-05-07T00:28:11;7.53;;;4.38;;
43771;SDS011;59066;54.782;32.024;2023-05-07T00:30:39;9.90;;;4.95;;
43771;SDS011;59066;54.782;32.024;2023-05-07T00:33:07;8.70;;;5.18;;
43771;SDS011;59066;54.782;32.024;2023-05-07T00:35:34;7.85;;;4.50;;
43771;SDS011;59066;54.782;32.024;2023-05-07T00:38:02;6.60;;;4.72;;
43771;SDS011;59066;54.782;32.024;2023-05-07T00:40:29;8.05;;;5.00;;
43771;SDS011;59066;54.782;32.024;2023-05-07T00:42:57;9.40;;;4.72;;
43771;SDS011;59066;54.782;32.024;2023-05-07T00:45:26;9.50;;;4.72;;
43771;SDS011;59066;54.782;32.024;2023-05-07T00:47:58;9.82;;;4.55;;
43771;SDS011;59066;54.782;32.024;2023-05-07T00:50:27;12.73;;;4.78;;
43771;SDS011;59066;54.782;32.024;2023-05-07T00:52:56;10.77;;;5.57;;
43771;SDS011;59066;54.782;32.024;2023-05-07T00:55:24;7.72;;;5.10;;
43771;SDS011;59066;54.782;32.024;2023-05-07T00:57:51;9.60;;;5.40;;
43771;SDS011;59066;54.782;32.024;2023-05-07T01:00:19;7.32;;;4.68;;
43771;SDS011;59066;54.782;32.024;2023-05-07T01:02:46;8.73;;;5.20;;
43771;SDS011;59066;54.782;32.024;2023-05-07T01:05:15;8.02;;;4.82;;
43771;SDS011;59066;54.782;32.024;2023-05-07T01:07:44;13.00;;;5.50;;
43771;SDS011;59066;54.782;32.024;2023-05-07T01:10:13;8.90;;;5.00;;
43771;SDS011;59066;54.782;32.024;2023-05-07T01:12:41;8.25;;;5.47;;
43771;SDS011;59066;54.782;32.024;2023-05-07T01:15:10;7.97;;;5.80;;
43771;SDS011;59066;54.782;32.024;2023-05-07T01:17:39;11.95;;;5.68;;
43771;SDS011;59066;54.782;32.024;2023-05-07T01:20:15;9.85;;;5.72;;
43771;SDS011;59066;54.782;32.024;2023-05-07T01:22:44;9.35;;;5.38;;
43771;SDS011;59066;54.782;32.024;2023-05-07T01:25:13;8.50;;;5.50;;
43771;SDS011;59066;54.782;32.024;2023-05-07T01:27:48;12.80;;;6.10;;
43771;SDS011;59066;54.782;32.024;2023-05-07T01:30:16;9.88;;;5.57;;
43771;SDS011;59066;54.782;32.024;2023-05-07T01:32:53;10.82;;;6.25;;
43771;SDS011;59066;54.782;32.024;2023-05-07T01:35:31;8.77;;;5.60;;
43771;SDS011;59066;54.782;32.024;2023-05-07T01:40:33;10.80;;;5.57;;
43771;SDS011;59066;54.782;32.024;2023-05-07T01:43:04;11.30;;;5.70;;
43771;SDS011;59066;54.782;32.024;2023-05-07T01:45:35;13.90;;;6.55;;
43771;SDS011;59066;54.782;32.024;2023-05-07T01:48:03;17.95;;;6.95;;
43771;SDS011;59066;54.782;32.024;2023-05-07T01:50:31;17.42;;;6.90;;
43771;SDS011;59066;54.782;32.024;2023-05-07T01:53:01;27.67;;;7.72;;
43771;SDS011;59066;54.782;32.024;2023-05-07T01:55:29;19.08;;;8.00;;
43771;SDS011;59066;54.782;32.024;2023-05-07T01:57:57;14.20;;;7.57;;
43771;SDS011;59066;54.782;32.024;2023-05-07T02:00:25;13.98;;;7.30;;
43771;SDS011;59066;54.782;32.024;2023-05-07T02:02:53;20.00;;;7.60;;
43771;SDS011;59066;54.782;32.024;2023-05-07T02:05:33;39.17;;;8.40;;
43771;SDS011;59066;54.782;32.024;2023-05-07T02:08:10;50.92;;;10.63;;
43771;SDS011;59066;54.782;32.024;2023-05-07T02:10:37;26.15;;;8.95;;
43771;SDS011;59066;54.782;32.024;2023-05-07T02:13:06;23.25;;;9.10;;
43771;SDS011;59066;54.782;32.024;2023-05-07T02:15:33;117.78;;;18.63;;
43771;SDS011;59066;54.782;32.024;2023-05-07T02:18:07;51.75;;;11.52;;
43771;SDS011;59066;54.782;32.024;2023-05-07T02:20:36;40.15;;;9.63;;
43771;SDS011;59066;54.782;32.024;2023-05-07T02:23:04;25.13;;;8.95;;
43771;SDS011;59066;54.782;32.024;2023-05-07T02:25:31;38.28;;;10.70;;
43771;SDS011;59066;54.782;32.024;2023-05-07T02:27:59;19.77;;;10.07;;
43771;SDS011;59066;54.782;32.024;2023-05-07T02:30:43;25.05;;;12.70;;
43771;SDS011;59066;54.782;32.024;2023-05-07T02:33:10;18.38;;;11.57;;
43771;SDS011;59066;54.782;32.024;2023-05-07T02:35:41;16.48;;;10.45;;
43771;SDS011;59066;54.782;32.024;2023-05-07T02:38:10;18.33;;;10.68;;
43771;SDS011;59066;54.782;32.024;2023-05-07T02:40:38;20.77;;;11.40;;
43771;SDS011;59066;54.782;32.024;2023-05-07T02:43:06;17.40;;;13.00;;
43771;SDS011;59066;54.782;32.024;2023-05-07T02:45:34;14.10;;;10.98;;
43771;SDS011;59066;54.782;32.024;2023-05-07T02:48:06;19.35;;;11.48;;
43771;SDS011;59066;54.782;32.024;2023-05-07T02:50:34;16.42;;;10.45;;
43771;SDS011;59066;54.782;32.024;2023-05-07T02:53:01;17.65;;;10.82;;
43771;SDS011;59066;54.782;32.024;2023-05-07T02:55:29;20.00;;;11.90;;
43771;SDS011;59066;54.782;32.024;2023-05-07T02:57:57;12.02;;;8.30;;
43771;SDS011;59066;54.782;32.024;2023-05-07T03:00:25;9.88;;;6.38;;
43771;SDS011;59066;54.782;32.024;2023-05-07T03:03:07;13.70;;;7.43;;
43771;SDS011;59066;54.782;32.024;2023-05-07T03:05:34;15.07;;;5.72;;
43771;SDS011;59066;54.782;32.024;2023-05-07T03:08:02;13.95;;;7.95;;
43771;SDS011;59066;54.782;32.024;2023-05-07T03:10:31;13.48;;;7.90;;
43771;SDS011;59066;54.782;32.024;2023-05-07T03:12:58;11.70;;;7.18;;
43771;SDS011;59066;54.782;32.024;2023-05-07T03:15:26;11.25;;;6.32;;
43771;SDS011;59066;54.782;32.024;2023-05-07T03:17:53;10.27;;;6.30;;
43771;SDS011;59066;54.782;32.024;2023-05-07T03:20:21;15.07;;;7.50;;
43771;SDS011;59066;54.782;32.024;2023-05-07T03:22:49;11.32;;;6.53;;
43771;SDS011;59066;54.782;32.024;2023-05-07T03:25:16;12.52;;;6.38;;
43771;SDS011;59066;54.782;32.024;2023-05-07T03:27:44;12.95;;;6.78;;
43771;SDS011;59066;54.782;32.024;2023-05-07T03:30:12;13.68;;;6.50;;
43771;SDS011;59066;54.782;32.024;2023-05-07T03:32:40;11.82;;;6.22;;
43771;SDS011;59066;54.782;32.024;2023-05-07T03:35:10;13.57;;;5.70;;
43771;SDS011;59066;54.782;32.024;2023-05-07T03:37:39;7.50;;;4.55;;
43771;SDS011;59066;54.782;32.024;2023-05-07T03:40:07;7.40;;;4.63;;
43771;SDS011;59066;54.782;32.024;2023-05-07T03:42:44;7.53;;;4.75;;
43771;SDS011;59066;54.782;32.024;2023-05-07T03:45:13;11.13;;;5.63;;
43771;SDS011;59066;54.782;32.024;2023-05-07T03:47:44;10.27;;;6.25;;
43771;SDS011;59066;54.782;32.024;2023-05-07T03:50:16;9.73;;;6.00;;
43771;SDS011;59066;54.782;32.024;2023-05-07T03:52:43;10.95;;;6.65;;
43771;SDS011;59066;54.782;32.024;2023-05-07T03:55:13;11.27;;;6.50;;
43771;SDS011;59066;54.782;32.024;2023-05-07T03:57:47;9.90;;;6.40;;
43771;SDS011;59066;54.782;32.024;2023-05-07T04:00:14;13.50;;;6.03;;
43771;SDS011;59066;54.782;32.024;2023-05-07T04:02:48;9.73;;;5.28;;
43771;SDS011;59066;54.782;32.024;2023-05-07T04:05:23;8.50;;;5.35;;
43771;SDS011;59066;54.782;32.024;2023-05-07T04:07:55;17.70;;;10.02;;
43771;SDS011;59066;54.782;32.024;2023-05-07T04:10:29;7.63;;;5.40;;
43771;SDS011;59066;54.782;32.024;2023-05-07T04:12:59;13.52;;;5.25;;
43771;SDS011;59066;54.782;32.024;2023-05-07T04:15:27;11.30;;;4.60;;
43771;SDS011;59066;54.782;32.024;2023-05-07T04:17:55;9.80;;;4.68;;
43771;SDS011;59066;54.782;32.024;2023-05-07T04:20:24;9.30;;;4.72;;
43771;SDS011;59066;54.782;32.024;2023-05-07T04:22:58;6.97;;;4.80;;
43771;SDS011;59066;54.782;32.024;2023-05-07T04:25:25;7.80;;;4.32;;
43771;SDS011;59066;54.782;32.024;2023-05-07T04:28:00;10.20;;;5.93;;
43771;SDS011;59066;54.782;32.024;2023-05-07T04:30:28;10.20;;;4.50;;
43771;SDS011;59066;54.782;32.024;2023-05-07T04:32:56;7.80;;;4.82;;
43771;SDS011;59066;54.782;32.024;2023-05-07T04:35:27;7.78;;;5.18;;
43771;SDS011;59066;54.782;32.024;2023-05-07T04:37:54;16.17;;;5.32;;
43771;SDS011;59066;54.782;32.024;2023-05-07T04:40:22;9.07;;;5.00;;
43771;SDS011;59066;54.782;32.024;2023-05-07T04:42:50;11.27;;;4.70;;
43771;SDS011;59066;54.782;32.024;2023-05-07T04:45:18;9.75;;;5.43;;
43771;SDS011;59066;54.782;32.024;2023-05-07T04:47:47;9.02;;;5.63;;
43771;SDS011;59066;54.782;32.024;2023-05-07T04:50:14;9.55;;;5.50;;
43771;SDS011;59066;54.782;32.024;2023-05-07T04:52:43;11.18;;;5.45;;
43771;SDS011;59066;54.782;32.024;2023-05-07T04:55:12;15.23;;;5.88;;
43771;SDS011;59066;54.782;32.024;2023-05-07T04:57:40;13.45;;;5.55;;
43771;SDS011;59066;54.782;32.024;2023-05-07T05:00:11;10.40;;;5.20;;
43771;SDS011;59066;54.782;32.024;2023-05-07T05:02:43;14.30;;;4.88;;
43771;SDS011;59066;54.782;32.024;2023-05-07T05:05:15;10.35;;;4.63;;
43771;SDS011;59066;54.782;32.024;2023-05-07T05:07:43;11.48;;;4.63;;
43771;SDS011;59066;54.782;32.024;2023-05-07T05:10:11;6.88;;;3.80;;
43771;SDS011;59066;54.782;32.024;2023-05-07T05:12:40;7.43;;;3.97;;
43771;SDS011;59066;54.782;32.024;2023-05-07T05:15:08;5.95;;;3.35;;
43771;SDS011;59066;54.782;32.024;2023-05-07T05:17:37;8.95;;;4.05;;
43771;SDS011;59066;54.782;32.024;2023-05-07T05:20:05;7.40;;;3.80;;
43771;SDS011;59066;54.782;32.024;2023-05-07T05:22:33;5.25;;;3.17;;
43771;SDS011;59066;54.782;32.024;2023-05-07T05:25:01;11.38;;;3.83;;
43771;SDS011;59066;54.782;32.024;2023-05-07T05:27:29;13.88;;;3.83;;
43771;SDS011;59066;54.782;32.024;2023-05-07T05:29:56;9.77;;;3.83;;
43771;SDS011;59066;54.782;32.024;2023-05-07T05:32:24;5.40;;;3.13;;
43771;SDS011;59066;54.782;32.024;2023-05-07T05:34:54;4.75;;;2.58;;
43771;SDS011;59066;54.782;32.024;2023-05-07T05:37:22;4.80;;;2.42;;
43771;SDS011;59066;54.782;32.024;2023-05-07T05:39:50;5.78;;;2.03;;
43771;SDS011;59066;54.782;32.024;2023-05-07T05:42:18;6.78;;;2.00;;
43771;SDS011;59066;54.782;32.024;2023-05-07T05:44:46;2.28;;;1.60;;
43771;SDS011;59066;54.782;32.024;2023-05-07T05:47:13;5.60;;;2.88;;
43771;SDS011;59066;54.782;32.024;2023-05-07T05:49:41;8.75;;;3.28;;
43771;SDS011;59066;54.782;32.024;2023-05-07T05:52:14;6.18;;;3.45;;
43771;SDS011;59066;54.782;32.024;2023-05-07T05:54:41;4.88;;;1.92;;
43771;SDS011;59066;54.782;32.024;2023-05-07T05:57:09;2.90;;;1.95;;
43771;SDS011;59066;54.782;32.024;2023-05-07T05:59:37;3.97;;;1.80;;
43771;SDS011;59066;54.782;32.024;2023-05-07T06:02:05;4.75;;;1.98;;
43771;SDS011;59066;54.782;32.024;2023-05-07T06:04:33;5.68;;;2.30;;
43771;SDS011;59066;54.782;32.024;2023-05-07T06:07:02;5.13;;;2.40;;
43771;SDS011;59066;54.782;32.024;2023-05-07T06:09:29;3.70;;;2.30;;
43771;SDS011;59066;54.782;32.024;2023-05-07T06:11:57;9.73;;;2.35;;
43771;SDS011;59066;54.782;32.024;2023-05-07T06:14:29;4.03;;;2.45;;
43771;SDS011;59066;54.782;32.024;2023-05-07T06:16:56;6.38;;;2.50;;
43771;SDS011;59066;54.782;32.024;2023-05-07T06:19:25;7.70;;;2.67;;
43771;SDS011;59066;54.782;32.024;2023-05-07T06:21:56;6.25;;;3.30;;
43771;SDS011;59066;54.782;32.024;2023-05-07T06:24:27;11.05;;;3.38;;
43771;SDS011;59066;54.782;32.024;2023-05-07T06:26:55;6.03;;;3.70;;
43771;SDS011;59066;54.782;32.024;2023-05-07T06:29:22;7.15;;;3.35;;
43771;SDS011;59066;54.782;32.024;2023-05-07T06:31:50;6.95;;;3.88;;
43771;SDS011;59066;54.782;32.024;2023-05-07T06:34:18;8.45;;;4.07;;
43771;SDS011;59066;54.782;32.024;2023-05-07T06:36:45;8.13;;;4.47;;
43771;SDS011;59066;54.782;32.024;2023-05-07T06:39:31;11.35;;;4.10;;
43771;SDS011;59066;54.782;32.024;2023-05-07T06:42:00;7.10;;;3.63;;
43771;SDS011;59066;54.782;32.024;2023-05-07T06:44:31;9.70;;;3.83;;
43771;SDS011;59066;54.782;32.024;2023-05-07T06:47:10;8.77;;;4.07;;
43771;SDS011;59066;54.782;32.024;2023-05-07T06:49:41;6.43;;;3.90;;
43771;SDS011;59066;54.782;32.024;2023-05-07T06:52:08;4.82;;;3.28;;
43771;SDS011;59066;54.782;32.024;2023-05-07T06:54:36;11.55;;;4.60;;
43771;SDS011;59066;54.782;32.024;2023-05-07T06:57:04;6.30;;;4.22;;
43771;SDS011;59066;54.782;32.024;2023-05-07T06:59:31;6.68;;;4.53;;
43771;SDS011;59066;54.782;32.024;2023-05-07T07:01:59;7.25;;;5.05;;
43771;SDS011;59066;54.782;32.024;2023-05-07T07:04:26;6.28;;;4.18;;
43771;SDS011;59066;54.782;32.024;2023-05-07T07:07:01;8.18;;;3.97;;
43771;SDS011;59066;54.782;32.024;2023-05-07T07:09:28;11.52;;;4.32;;
43771;SDS011;59066;54.782;32.024;2023-05-07T07:11:57;8.25;;;5.20;;
43771;SDS011;59066;54.782;32.024;2023-05-07T07:14:25;6.20;;;3.83;;
43771;SDS011;59066;54.782;32.024;2023-05-07T07:16:53;7.93;;;3.78;;
43771;SDS011;59066;54.782;32.024;2023-05-07T07:19:22;6.93;;;5.05;;
43771;SDS011;59066;54.782;32.024;2023-05-07T07:21:53;7.10;;;4.57;;
43771;SDS011;59066;54.782;32.024;2023-05-07T07:24:20;12.40;;;5.13;;
43771;SDS011;59066;54.782;32.024;2023-05-07T07:26:53;5.05;;;3.30;;
43771;SDS011;59066;54.782;32.024;2023-05-07T07:29:24;6.85;;;3.78;;
43771;SDS011;59066;54.782;32.024;2023-05-07T07:31:54;9.25;;;4.47;;
43771;SDS011;59066;54.782;32.024;2023-05-07T07:34:21;7.93;;;4.35;;
43771;SDS011;59066;54.782;32.024;2023-05-07T07:36:49;7.90;;;5.35;;
43771;SDS011;59066;54.782;32.024;2023-05-07T07:39:18;8.73;;;4.20;;
43771;SDS011;59066;54.782;32.024;2023-05-07T07:41:49;5.00;;;3.95;;
43771;SDS011;59066;54.782;32.024;2023-05-07T07:44:17;8.77;;;4.10;;
43771;SDS011;59066;54.782;32.024;2023-05-07T07:46:50;6.70;;;3.90;;
43771;SDS011;59066;54.782;32.024;2023-05-07T07:49:19;6.60;;;3.88;;
43771;SDS011;59066;54.782;32.024;2023-05-07T07:51:47;6.43;;;3.60;;
43771;SDS011;59066;54.782;32.024;2023-05-07T07:54:15;6.63;;;3.65;;
43771;SDS011;59066;54.782;32.024;2023-05-07T07:56:44;5.60;;;4.13;;
43771;SDS011;59066;54.782;32.024;2023-05-07T07:59:12;5.82;;;3.75;;
43771;SDS011;59066;54.782;32.024;2023-05-07T08:01:45;6.97;;;4.15;;
43771;SDS011;59066;54.782;32.024;2023-05-07T08:04:15;5.25;;;3.60;;
43771;SDS011;59066;54.782;32.024;2023-05-07T08:06:43;8.82;;;3.55;;
43771;SDS011;59066;54.782;32.024;2023-05-07T08:09:11;7.82;;;4.68;;
43771;SDS011;59066;54.782;32.024;2023-05-07T08:11:40;7.40;;;3.33;;
43771;SDS011;59066;54.782;32.024;2023-05-07T08:14:08;7.68;;;3.78;;
43771;SDS011;59066;54.782;32.024;2023-05-07T08:16:36;7.15;;;3.35;;
43771;SDS011;59066;54.782;32.024;2023-05-07T08:19:04;9.00;;;3.33;;
43771;SDS011;59066;54.782;32.024;2023-05-07T08:21:32;10.70;;;3.08;;
43771;SDS011;59066;54.782;32.024;2023-05-07T08:24:00;6.03;;;3.70;;
43771;SDS011;59066;54.782;32.024;2023-05-07T08:26:28;7.22;;;3.08;;
43771;SDS011;59066;54.782;32.024;2023-05-07T08:28:56;14.13;;;3.25;;
43771;SDS011;59066;54.782;32.024;2023-05-07T08:31:25;12.00;;;3.03;;
43771;SDS011;59066;54.782;32.024;2023-05-07T08:33:52;8.25;;;2.67;;
43771;SDS011;59066;54.782;32.024;2023-05-07T08:36:20;6.40;;;2.50;;
43771;SDS011;59066;54.782;32.024;2023-05-07T08:38:48;7.18;;;2.80;;
43771;SDS011;59066;54.782;32.024;2023-05-07T08:41:16;6.25;;;3.03;;
43771;SDS011;59066;54.782;32.024;2023-05-07T08:43:47;9.30;;;3.33;;
43771;SDS011;59066;54.782;32.024;2023-05-07T08:46:17;5.55;;;3.30;;
43771;SDS011;59066;54.782;32.024;2023-05-07T08:48:48;6.30;;;3.00;;
43771;SDS011;59066;54.782;32.024;2023-05-07T08:51:20;7.10;;;3.60;;
43771;SDS011;59066;54.782;32.024;2023-05-07T08:53:48;6.55;;;3.30;;
43771;SDS011;59066;54.782;32.024;2023-05-07T08:56:22;9.25;;;3.17;;
43771;SDS011;59066;54.782;32.024;2023-05-07T08:58:52;11.38;;;3.95;;
43771;SDS011;59066;54.782;32.024;2023-05-07T09:01:24;7.72;;;3.55;;
43771;SDS011;59066;54.782;32.024;2023-05-07T09:03:54;5.93;;;2.80;;
43771;SDS011;59066;54.782;32.024;2023-05-07T09:06:22;4.43;;;3.13;;
43771;SDS011;59066;54.782;32.024;2023-05-07T09:08:51;5.35;;;3.30;;
43771;SDS011;59066;54.782;32.024;2023-05-07T09:11:23;5.88;;;2.67;;
43771;SDS011;59066;54.782;32.024;2023-05-07T09:13:55;3.95;;;2.80;;
43771;SDS011;59066;54.782;32.024;2023-05-07T09:16:25;5.65;;;3.53;;
43771;SDS011;59066;54.782;32.024;2023-05-07T09:18:54;5.07;;;2.95;;
43771;SDS011;59066;54.782;32.024;2023-05-07T09:21:22;3.47;;;2.80;;
43771;SDS011;59066;54.782;32.024;2023-05-07T09:23:53;3.88;;;2.80;;
43771;SDS011;59066;54.782;32.024;2023-05-07T09:26:35;5.38;;;2.60;;
43771;SDS011;59066;54.782;32.024;2023-05-07T09:29:04;6.05;;;3.58;;
43771;SDS011;59066;54.782;32.024;2023-05-07T09:31:36;5.50;;;3.05;;
43771;SDS011;59066;54.782;32.024;2023-05-07T09:34:06;4.30;;;2.85;;
43771;SDS011;59066;54.782;32.024;2023-05-07T09:36:37;7.60;;;3.38;;
43771;SDS011;59066;54.782;32.024;2023-05-07T09:39:05;4.95;;;3.05;;
43771;SDS011;59066;54.782;32.024;2023-05-07T09:41:33;6.13;;;3.20;;
43771;SDS011;59066;54.782;32.024;2023-05-07T09:44:31;5.22;;;3.20;;
43771;SDS011;59066;54.782;32.024;2023-05-07T09:46:59;5.28;;;2.90;;
43771;SDS011;59066;54.782;32.024;2023-05-07T09:49:35;5.57;;;2.80;;
43771;SDS011;59066;54.782;32.024;2023-05-07T09:52:07;3.70;;;2.40;;
43771;SDS011;59066;54.782;32.024;2023-05-07T09:54:43;5.20;;;2.77;;
43771;SDS011;59066;54.782;32.024;2023-05-07T09:57:14;4.15;;;2.70;;
43771;SDS011;59066;54.782;32.024;2023-05-07T09:59:45;3.00;;;2.25;;
43771;SDS011;59066;54.782;32.024;2023-05-07T10:02:17;3.78;;;2.67;;
43771;SDS011;59066;54.782;32.024;2023-05-07T10:04:50;5.70;;;3.47;;
43771;SDS011;59066;54.782;32.024;2023-05-07T10:07:23;5.90;;;3.53;;
43771;SDS011;59066;54.782;32.024;2023-05-07T10:09:56;9.07;;;5.57;;
43771;SDS011;59066;54.782;32.024;2023-05-07T10:12:36;7.47;;;3.45;;
43771;SDS011;59066;54.782;32.024;2023-05-07T10:15:17;10.65;;;3.10;;
43771;SDS011;59066;54.782;32.024;2023-05-07T10:17:50;4.55;;;2.67;;
43771;SDS011;59066;54.782;32.024;2023-05-07T10:20:21;4.05;;;2.45;;
43771;SDS011;59066;54.782;32.024;2023-05-07T10:22:49;4.72;;;2.50;;
43771;SDS011;59066;54.782;32.024;2023-05-07T10:25:30;4.18;;;2.60;;
43771;SDS011;59066;54.782;32.024;2023-05-07T10:28:05;3.85;;;2.55;;
43771;SDS011;59066;54.782;32.024;2023-05-07T10:33:16;11.68;;;3.33;;
43771;SDS011;59066;54.782;32.024;2023-05-07T10:35:47;4.95;;;2.67;;
43771;SDS011;59066;54.782;32.024;2023-05-07T10:38:16;2.92;;;2.53;;
43771;SDS011;59066;54.782;32.024;2023-05-07T10:40:46;4.25;;;2.47;;
43771;SDS011;59066;54.782;32.024;2023-05-07T10:43:16;7.78;;;2.60;;
43771;SDS011;59066;54.782;32.024;2023-05-07T10:51:36;4.57;;;2.58;;
43771;SDS011;59066;54.782;32.024;2023-05-07T10:54:21;5.90;;;3.22;;
43771;SDS011;59066;54.782;32.024;2023-05-07T10:56:57;13.48;;;4.95;;
43771;SDS011;59066;54.782;32.024;2023-05-07T11:03:07;2.80;;;2.50;;
43771;SDS011;59066;54.782;32.024;2023-05-07T11:06:24;5.22;;;2.50;;
43771;SDS011;59066;54.782;32.024;2023-05-07T11:08:55;3.65;;;2.60;;
43771;SDS011;59066;54.782;32.024;2023-05-07T11:14:48;7.63;;;2.85;;
43771;SDS011;59066;54.782;32.024;2023-05-07T11:17:24;4.88;;;2.75;;
43771;SDS011;59066;54.782;32.024;2023-05-07T11:20:03;4.90;;;3.17;;
43771;SDS011;59066;54.782;32.024;2023-05-07T11:22:42;3.72;;;2.53;;
43771;SDS011;59066;54.782;32.024;2023-05-07T11:25:27;4.05;;;2.90;;
43771;SDS011;59066;54.782;32.024;2023-05-07T11:28:07;11.20;;;3.92;;
43771;SDS011;59066;54.782;32.024;2023-05-07T11:30:47;7.88;;;3.03;;
43771;SDS011;59066;54.782;32.024;2023-05-07T11:33:18;4.57;;;2.60;;
43771;SDS011;59066;54.782;32.024;2023-05-07T11:35:48;10.18;;;3.25;;
43771;SDS011;59066;54.782;32.024;2023-05-07T11:38:19;3.10;;;2.80;;
43771;SDS011;59066;54.782;32.024;2023-05-07T11:40:48;6.90;;;3.53;;
43771;SDS011;59066;54.782;32.024;2023-05-07T11:43:19;5.03;;;3.00;;
43771;SDS011;59066;54.782;32.024;2023-05-07T11:45:47;3.63;;;2.83;;
43771;SDS011;59066;54.782;32.024;2023-05-07T11:48:16;9.80;;;4.13;;
43771;SDS011;59066;54.782;32.024;2023-05-07T11:50:53;4.65;;;2.90;;
43771;SDS011;59066;54.782;32.024;2023-05-07T11:53:27;6.88;;;3.88;;
43771;SDS011;59066;54.782;32.024;2023-05-07T11:58:36;8.82;;;4.55;;
43771;SDS011;59066;54.782;32.024;2023-05-07T12:01:07;5.47;;;3.80;;
43771;SDS011;59066;54.782;32.024;2023-05-07T12:03:36;8.00;;;3.80;;
43771;SDS011;59066;54.782;32.024;2023-05-07T12:06:05;5.95;;;3.80;;
43771;SDS011;59066;54.782;32.024;2023-05-07T12:08:35;4.72;;;3.58;;
43771;SDS011;59066;54.782;32.024;2023-05-07T12:11:07;5.82;;;4.32;;
43771;SDS011;59066;54.782;32.024;2023-05-07T12:13:36;7.85;;;4.15;;
43771;SDS011;59066;54.782;32.024;2023-05-07T12:16:05;8.27;;;4.28;;
43771;SDS011;59066;54.782;32.024;2023-05-07T12:18:34;5.20;;;3.55;;
43771;SDS011;59066;54.782;32.024;2023-05-07T12:21:03;8.13;;;3.90;;
43771;SDS011;59066;54.782;32.024;2023-05-07T12:23:33;4.82;;;3.17;;
43771;SDS011;59066;54.782;32.024;2023-05-07T12:26:02;4.45;;;3.88;;
43771;SDS011;59066;54.782;32.024;2023-05-07T12:28:35;6.95;;;3.63;;
43771;SDS011;59066;54.782;32.024;2023-05-07T12:31:05;7.35;;;3.70;;
43771;SDS011;59066;54.782;32.024;2023-05-07T12:33:34;11.25;;;3.53;;
43771;SDS011;59066;54.782;32.024;2023-05-07T12:36:03;12.95;;;3.92;;
43771;SDS011;59066;54.782;32.024;2023-05-07T12:38:35;6.63;;;3.92;;
43771;SDS011;59066;54.782;32.024;2023-05-07T12:41:04;7.80;;;5.65;;
43771;SDS011;59066;54.782;32.024;2023-05-07T12:43:32;12.30;;;4.20;;
43771;SDS011;59066;54.782;32.024;2023-05-07T12:46:01;5.75;;;3.75;;
43771;SDS011;59066;54.782;32.024;2023-05-07T12:48:31;7.93;;;3.50;;
43771;SDS011;59066;54.782;32.024;2023-05-07T12:50:59;5.05;;;3.70;;
43771;SDS011;59066;54.782;32.024;2023-05-07T12:53:29;10.65;;;3.83;;
43771;SDS011;59066;54.782;32.024;2023-05-07T12:55:58;5.68;;;3.72;;
43771;SDS011;59066;54.782;32.024;2023-05-07T13:00:55;7.35;;;3.40;;
43771;SDS011;59066;54.782;32.024;2023-05-07T13:03:30;6.38;;;4.20;;
43771;SDS011;59066;54.782;32.024;2023-05-07T13:06:00;12.00;;;4.88;;
43771;SDS011;59066;54.782;32.024;2023-05-07T13:08:36;8.13;;;4.68;;
43771;SDS011;59066;54.782;32.024;2023-05-07T13:11:07;8.80;;;4.20;;
43771;SDS011;59066;54.782;32.024;2023-05-07T13:13:35;6.90;;;4.03;;
43771;SDS011;59066;54.782;32.024;2023-05-07T13:16:06;7.43;;;4.80;;
43771;SDS011;59066;54.782;32.024;2023-05-07T13:18:35;6.63;;;4.28;;
43771;SDS011;59066;54.782;32.024;2023-05-07T13:21:03;10.30;;;5.32;;
43771;SDS011;59066;54.782;32.024;2023-05-07T13:23:31;9.73;;;4.05;;
43771;SDS011;59066;54.782;32.024;2023-05-07T13:25:59;8.85;;;4.03;;
43771;SDS011;59066;54.782;32.024;2023-05-07T13:28:29;8.45;;;4.28;;
43771;SDS011;59066;54.782;32.024;2023-05-07T13:30:57;5.65;;;4.38;;
43771;SDS011;59066;54.782;32.024;2023-05-07T13:33:24;9.20;;;4.40;;
43771;SDS011;59066;54.782;32.024;2023-05-07T13:35:52;4.72;;;3.33;;
43771;SDS011;59066;54.782;32.024;2023-05-07T13:38:19;5.75;;;4.10;;
43771;SDS011;59066;54.782;32.024;2023-05-07T13:40:48;6.75;;;4.00;;
43771;SDS011;59066;54.782;32.024;2023-05-07T13:43:16;5.38;;;3.45;;
43771;SDS011;59066;54.782;32.024;2023-05-07T13:45:44;4.13;;;3.72;;
43771;SDS011;59066;54.782;32.024;2023-05-07T13:48:12;10.75;;;9.07;;
43771;SDS011;59066;54.782;32.024;2023-05-07T13:50:39;4.40;;;3.58;;
43771;SDS011;59066;54.782;32.024;2023-05-07T13:53:07;7.20;;;3.78;;
43771;SDS011;59066;54.782;32.024;2023-05-07T13:55:35;6.82;;;4.80;;
43771;SDS011;59066;54.782;32.024;2023-05-07T13:58:03;6.85;;;4.53;;
43771;SDS011;59066;54.782;32.024;2023-05-07T14:00:32;6.38;;;4.03;;
43771;SDS011;59066;54.782;32.024;2023-05-07T14:03:00;7.28;;;4.45;;
43771;SDS011;59066;54.782;32.024;2023-05-07T14:05:28;8.40;;;5.15;;
43771;SDS011;59066;54.782;32.024;2023-05-07T14:07:59;6.75;;;3.97;;
43771;SDS011;59066;54.782;32.024;2023-05-07T14:10:27;4.63;;;3.55;;
43771;SDS011;59066;54.782;32.024;2023-05-07T14:12:54;4.20;;;3.42;;
43771;SDS011;59066;54.782;32.024;2023-05-07T14:15:22;5.55;;;3.97;;
43771;SDS011;59066;54.782;32.024;2023-05-07T14:17:49;10.50;;;6.28;;
43771;SDS011;59066;54.782;32.024;2023-05-07T14:20:17;6.70;;;5.82;;
43771;SDS011;59066;54.782;32.024;2023-05-07T14:22:45;7.38;;;3.78;;
43771;SDS011;59066;54.782;32.024;2023-05-07T14:25:12;6.35;;;3.63;;
43771;SDS011;59066;54.782;32.024;2023-05-07T14:27:42;6.80;;;3.70;;
43771;SDS011;59066;54.782;32.024;2023-05-07T14:30:10;7.13;;;3.33;;
43771;SDS011;59066;54.782;32.024;2023-05-07T14:32:38;3.75;;;3.38;;
43771;SDS011;59066;54.782;32.024;2023-05-07T14:35:06;10.50;;;3.60;;
43771;SDS011;59066;54.782;32.024;2023-05-07T14:37:33;6.68;;;3.70;;
43771;SDS011;59066;54.782;32.024;2023-05-07T14:40:01;4.53;;;3.42;;
43771;SDS011;59066;54.782;32.024;2023-05-07T14:42:29;9.43;;;3.60;;
43771;SDS011;59066;54.782;32.024;2023-05-07T14:44:57;3.90;;;3.47;;
43771;SDS011;59066;54.782;32.024;2023-05-07T14:47:24;5.95;;;3.40;;
43771;SDS011;59066;54.782;32.024;2023-05-07T14:49:52;3.75;;;3.10;;
43771;SDS011;59066;54.782;32.024;2023-05-07T14:52:20;6.70;;;3.40;;
43771;SDS011;59066;54.782;32.024;2023-05-07T14:54:47;4.40;;;3.25;;
43771;SDS011;59066;54.782;32.024;2023-05-07T14:57:16;6.57;;;3.72;;
43771;SDS011;59066;54.782;32.024;2023-05-07T14:59:45;8.60;;;3.90;;
43771;SDS011;59066;54.782;32.024;2023-05-07T15:02:14;7.57;;;3.70;;
43771;SDS011;59066;54.782;32.024;2023-05-07T15:04:42;8.82;;;4.20;;
43771;SDS011;59066;54.782;32.024;2023-05-07T15:07:13;10.23;;;3.30;;
43771;SDS011;59066;54.782;32.024;2023-05-07T15:09:42;7.53;;;3.33;;